createdAt,value
2023-02-25T00:00:34.163Z,1.52
2023-02-25T00:03:00.816Z,0.63
2023-02-25T00:05:27.948Z,1.10
2023-02-25T00:07:55.300Z,0.80
2023-02-25T00:10:21.620Z,1.30
2023-02-25T00:12:47.944Z,0.95
2023-02-25T00:15:14.250Z,2.15
2023-02-25T00:17:40.588Z,0.85
2023-02-25T00:20:09.645Z,1.00
2023-02-25T00:22:36.620Z,1.00
2023-02-25T00:25:02.979Z,1.42
2023-02-25T00:27:29.437Z,1.52
2023-02-25T00:29:55.769Z,0.90
2023-02-25T00:32:23.157Z,1.40
2023-02-25T00:34:49.594Z,1.42
2023-02-25T00:37:16.478Z,1.88
2023-02-25T00:39:43.045Z,1.00
2023-02-25T00:42:14.226Z,1.30
2023-02-25T00:44:43.805Z,0.75
2023-02-25T00:47:10.112Z,1.45
2023-02-25T00:49:36.583Z,1.88
2023-02-25T00:52:02.955Z,1.50
2023-02-25T00:54:29.486Z,1.10
2023-02-25T00:56:55.798Z,1.45
2023-02-25T00:59:22.102Z,1.27
2023-02-25T01:01:48.561Z,0.98
2023-02-25T01:04:14.919Z,0.82
2023-02-25T01:06:41.316Z,0.82
2023-02-25T01:09:13.798Z,1.15
2023-02-25T01:11:45.925Z,0.65
2023-02-25T01:14:18.727Z,1.13
2023-02-25T01:16:47.117Z,2.10
2023-02-25T01:19:16.924Z,1.05
2023-02-25T01:21:46.275Z,1.48
2023-02-25T01:24:20.659Z,1.60
2023-02-25T01:26:48.098Z,1.17
2023-02-25T01:29:18.095Z,1.17
2023-02-25T01:31:45.200Z,0.77
2023-02-25T01:34:16.626Z,1.13
2023-02-25T01:36:44.073Z,1.27
2023-02-25T01:39:11.808Z,1.33
2023-02-25T01:41:38.900Z,1.30
2023-02-25T01:44:07.210Z,1.45
2023-02-25T01:46:33.966Z,1.80
2023-02-25T01:49:01.877Z,0.85
2023-02-25T01:51:30.041Z,1.50
2023-02-25T01:53:57.916Z,1.00
2023-02-25T01:56:27.404Z,1.60
2023-02-25T01:58:54.340Z,1.58
2023-02-25T02:01:23.166Z,1.60
2023-02-25T02:03:52.049Z,1.48
2023-02-25T02:06:24.123Z,0.90
2023-02-25T02:08:50.670Z,0.68
2023-02-25T02:11:17.239Z,1.42
2023-02-25T02:13:51.748Z,1.02
2023-02-25T02:16:36.198Z,0.90
2023-02-25T02:19:13.644Z,1.02
2023-02-25T02:22:09.262Z,1.00
2023-02-25T02:24:54.090Z,1.55
2023-02-25T02:27:25.839Z,1.02
2023-02-25T02:30:17.125Z,1.00
2023-02-25T02:32:49.424Z,1.13
2023-02-25T02:35:32.655Z,0.90
2023-02-25T02:38:13.884Z,0.50
2023-02-25T02:40:50.456Z,0.90
2023-02-25T02:43:28.959Z,0.82
2023-02-25T02:46:09.973Z,0.82
2023-02-25T02:51:13.465Z,0.80
2023-02-25T02:53:45.470Z,0.95
2023-02-25T02:56:14.732Z,0.80
2023-02-25T02:58:46.848Z,1.00
2023-02-25T03:01:28.263Z,0.60
2023-02-25T03:04:02.831Z,1.10
2023-02-25T03:06:42.820Z,0.80
2023-02-25T03:09:18.393Z,1.05
2023-02-25T03:11:44.867Z,1.67
2023-02-25T03:14:13.280Z,1.27
2023-02-25T03:16:44.704Z,0.75
2023-02-25T03:19:14.890Z,1.17
2023-02-25T03:21:49.593Z,1.00
2023-02-25T03:24:22.188Z,1.00
2023-02-25T03:26:52.677Z,0.93
2023-02-25T03:29:21.887Z,1.55
2023-02-25T03:32:09.285Z,0.75
2023-02-25T03:34:41.726Z,1.30
2023-02-25T03:37:15.676Z,1.20
2023-02-25T03:39:46.564Z,1.33
2023-02-25T03:42:18.423Z,0.65
2023-02-25T03:44:54.974Z,0.73
2023-02-25T03:47:23.950Z,1.77
2023-02-25T03:49:59.086Z,1.52
2023-02-25T03:52:27.462Z,1.55
2023-02-25T03:54:58.518Z,1.08
2023-02-25T03:59:56.340Z,0.80
2023-02-25T04:02:31.110Z,0.93
2023-02-25T04:04:57.895Z,1.10
2023-02-25T04:07:24.503Z,1.00
2023-02-25T04:09:50.876Z,1.20
2023-02-25T04:12:17.192Z,0.90
2023-02-25T04:14:43.518Z,1.33
2023-02-25T04:17:11.972Z,0.95
2023-02-25T04:19:38.251Z,2.05
2023-02-25T04:22:07.719Z,1.00
2023-02-25T04:24:34.335Z,1.55
2023-02-25T04:27:01.613Z,1.00
2023-02-25T04:29:29.080Z,1.33
2023-02-25T04:31:55.646Z,1.63
2023-02-25T04:34:22.539Z,1.15
2023-02-25T04:36:49.096Z,1.10
2023-02-25T04:39:17.978Z,1.27
2023-02-25T04:41:44.809Z,1.85
2023-02-25T04:44:11.367Z,1.20
2023-02-25T04:46:40.816Z,1.75
2023-02-25T04:49:09.535Z,1.08
2023-02-25T04:51:38.341Z,1.35
2023-02-25T04:54:05.448Z,1.45
2023-02-25T04:56:31.811Z,1.83
2023-02-25T04:58:58.380Z,1.10
2023-02-25T05:01:24.850Z,1.20
2023-02-25T05:03:56.598Z,1.70
2023-02-25T05:06:29.848Z,1.20
2023-02-25T05:08:57.597Z,1.77
2023-02-25T05:11:25.924Z,1.35
2023-02-25T05:13:52.800Z,1.17
2023-02-25T05:16:19.760Z,1.45
2023-02-25T05:18:47.273Z,1.40
2023-02-25T05:21:22.239Z,0.75
2023-02-25T05:23:51.151Z,1.38
2023-02-25T05:26:22.799Z,1.05
2023-02-25T05:28:54.388Z,1.48
2023-02-25T05:31:21.678Z,1.30
2023-02-25T05:33:48.163Z,0.95
2023-02-25T05:36:16.151Z,1.88
2023-02-25T05:38:42.964Z,1.65
2023-02-25T05:41:11.015Z,0.77
2023-02-25T05:43:38.688Z,1.92
2023-02-25T05:46:08.971Z,1.42
2023-02-25T05:48:35.259Z,1.00
2023-02-25T05:51:05.527Z,1.27
2023-02-25T05:53:32.330Z,2.30
2023-02-25T05:55:58.836Z,1.23
2023-02-25T05:58:25.553Z,1.35
2023-02-25T06:00:52.013Z,1.95
2023-02-25T06:03:18.448Z,1.75
2023-02-25T06:05:47.516Z,1.58
2023-02-25T06:08:14.285Z,1.77
2023-02-25T06:10:40.923Z,1.13
2023-02-25T06:13:11.527Z,1.30
2023-02-25T06:15:40.073Z,1.40
2023-02-25T06:18:06.681Z,1.65
2023-02-25T06:20:35.153Z,1.42
2023-02-25T06:23:02.713Z,1.50
2023-02-25T06:25:31.770Z,2.03
2023-02-25T06:27:59.663Z,1.52
2023-02-25T06:30:26.579Z,0.73
2023-02-25T06:32:53.065Z,1.83
2023-02-25T06:35:23.188Z,1.77
2023-02-25T06:38:00.078Z,1.10
2023-02-25T06:40:28.603Z,1.50
2023-02-25T06:42:54.968Z,1.02
2023-02-25T06:45:21.287Z,1.38
2023-02-25T06:47:47.623Z,1.23
2023-02-25T06:50:14.228Z,2.05
2023-02-25T06:52:40.585Z,2.72
2023-02-25T06:55:07.526Z,1.80
2023-02-25T06:57:34.564Z,1.23
2023-02-25T07:00:00.939Z,1.85
2023-02-25T07:02:27.663Z,1.25
2023-02-25T07:04:55.005Z,0.95
2023-02-25T07:07:22.205Z,0.95
2023-02-25T07:09:48.624Z,1.27
2023-02-25T07:12:14.963Z,1.15
2023-02-25T07:14:41.440Z,1.45
2023-02-25T07:17:07.718Z,1.50
2023-02-25T07:19:34.069Z,0.80
2023-02-25T07:22:00.379Z,1.02
2023-02-25T07:24:27.436Z,1.17
2023-02-25T07:26:56.416Z,1.58
2023-02-25T07:29:22.761Z,0.90
2023-02-25T07:31:49.282Z,1.40
2023-02-25T07:34:15.732Z,1.40
2023-02-25T07:36:42.043Z,1.52
2023-02-25T07:39:11.678Z,1.30
2023-02-25T07:41:38.241Z,1.10
2023-02-25T07:44:05.765Z,1.25
2023-02-25T07:46:32.819Z,1.30
2023-02-25T07:48:59.595Z,1.38
2023-02-25T07:51:26.251Z,1.25
2023-02-25T07:53:55.381Z,0.73
2023-02-25T07:56:24.594Z,1.58
2023-02-25T07:58:51.308Z,0.80
2023-02-25T08:01:25.850Z,1.08
2023-02-25T08:03:54.067Z,0.80
2023-02-25T08:06:20.840Z,1.27
2023-02-25T08:08:47.840Z,0.75
2023-02-25T08:11:14.947Z,1.10
2023-02-25T08:13:41.476Z,0.98
2023-02-25T08:16:10.438Z,1.23
2023-02-25T08:18:37.349Z,0.82
2023-02-25T08:21:04.458Z,0.65
2023-02-25T08:23:31.202Z,0.73
2023-02-25T08:25:58.644Z,1.08
2023-02-25T08:28:26.730Z,0.95
2023-02-25T08:30:54.536Z,0.98
2023-02-25T08:33:21.059Z,0.98
2023-02-25T08:35:47.440Z,0.90
2023-02-25T08:38:13.907Z,1.10
2023-02-25T08:40:40.756Z,1.10
2023-02-25T08:43:08.000Z,0.77
2023-02-25T08:45:34.952Z,1.10
2023-02-25T08:48:01.293Z,0.82
2023-02-25T08:50:27.731Z,0.98
2023-02-25T08:52:54.060Z,1.42
2023-02-25T08:55:22.155Z,1.15
2023-02-25T08:57:48.443Z,1.05
2023-02-25T09:00:15.511Z,1.25
2023-02-25T09:02:43.304Z,0.80
2023-02-25T09:05:09.646Z,0.63
2023-02-25T09:07:36.131Z,0.60
2023-02-25T09:10:06.445Z,0.50
2023-02-25T09:12:33.462Z,0.60
2023-02-25T09:14:59.844Z,0.45
2023-02-25T09:17:26.243Z,0.55
2023-02-25T09:19:52.627Z,0.40
2023-02-25T09:22:19.624Z,0.70
2023-02-25T09:24:46.043Z,0.60
2023-02-25T09:27:12.548Z,0.40
2023-02-25T09:29:39.956Z,1.15
2023-02-25T09:32:07.907Z,0.50
2023-02-25T09:34:34.485Z,0.65
2023-02-25T09:37:03.601Z,0.50
2023-02-25T09:39:30.016Z,1.60
2023-02-25T09:42:09.389Z,0.32
2023-02-25T09:44:43.171Z,0.47
2023-02-25T09:47:15.092Z,0.63
2023-02-25T09:49:53.403Z,0.60
2023-02-25T09:52:31.772Z,0.50
2023-02-25T09:55:26.021Z,1.00
2023-02-25T09:58:17.154Z,0.65
2023-02-25T10:01:06.842Z,0.70
2023-02-25T10:03:42.188Z,0.60
2023-02-25T10:06:23.130Z,0.88
2023-02-25T10:09:06.013Z,0.63
2023-02-25T10:12:13.156Z,0.73
2023-02-25T10:15:00.739Z,0.40
2023-02-25T10:17:46.769Z,1.10
2023-02-25T10:20:35.472Z,0.43
2023-02-25T10:23:24.400Z,0.40
2023-02-25T10:26:20.416Z,0.43
2023-02-25T10:28:52.545Z,0.30
2023-02-25T10:31:20.920Z,0.70
2023-02-25T10:33:50.292Z,0.35
2023-02-25T10:36:21.148Z,0.55
2023-02-25T10:38:51.144Z,0.60
2023-02-25T10:41:18.473Z,0.55
2023-02-25T10:43:45.398Z,0.68
2023-02-25T10:46:21.371Z,0.57
2023-02-25T10:48:56.280Z,0.40
2023-02-25T10:51:23.710Z,0.43
2023-02-25T10:53:53.221Z,0.73
2023-02-25T10:56:21.569Z,0.75
2023-02-25T10:59:24.742Z,0.98
2023-02-25T11:01:52.750Z,0.80
2023-02-25T11:04:23.974Z,0.50
2023-02-25T11:06:50.582Z,0.70
2023-02-25T11:09:19.596Z,1.10
2023-02-25T11:11:58.250Z,1.10
2023-02-25T11:14:30.321Z,0.38
2023-02-25T11:17:16.124Z,0.50
2023-02-25T11:19:59.947Z,0.75
2023-02-25T11:22:39.815Z,0.60
2023-02-25T11:25:15.540Z,0.57
2023-02-25T11:27:45.050Z,0.85
2023-02-25T11:30:14.344Z,0.70
2023-02-25T11:32:44.294Z,0.77
2023-02-25T11:35:20.112Z,0.65
2023-02-25T11:37:48.245Z,0.65
2023-02-25T11:40:22.867Z,0.88
2023-02-25T11:43:04.554Z,0.75
2023-02-25T11:45:33.896Z,0.50
2023-02-25T11:48:02.536Z,0.55
2023-02-25T11:50:45.274Z,0.63
2023-02-25T11:53:42.624Z,0.70
2023-02-25T11:56:40.311Z,0.65
2023-02-25T11:59:26.049Z,0.60
2023-02-25T12:02:16.567Z,1.08
2023-02-25T12:04:52.080Z,0.60
2023-02-25T12:07:24.370Z,0.60
2023-02-25T12:10:07.253Z,0.30
2023-02-25T12:13:24.313Z,0.50
2023-02-25T12:16:32.037Z,0.88
2023-02-25T12:19:11.806Z,0.82
2023-02-25T12:21:53.645Z,0.80
2023-02-25T12:24:51.708Z,0.70
2023-02-25T12:27:36.668Z,0.68
2023-02-25T12:30:24.079Z,0.90
2023-02-25T12:33:07.529Z,1.35
2023-02-25T12:35:49.118Z,1.30
2023-02-25T12:38:51.287Z,0.98
2023-02-25T12:41:38.410Z,0.90
2023-02-25T12:44:41.793Z,0.90
2023-02-25T12:47:44.125Z,1.00
2023-02-25T12:50:22.639Z,0.88
2023-02-25T12:53:14.034Z,1.15
2023-02-25T12:55:46.311Z,0.85
2023-02-25T12:58:23.048Z,0.93
2023-02-25T13:01:22.457Z,1.13
2023-02-25T13:03:58.148Z,0.60
2023-02-25T13:07:09.525Z,1.00
2023-02-25T13:10:04.131Z,0.57
2023-02-25T13:12:40.641Z,0.70
2023-02-25T13:15:28.774Z,0.60
2023-02-25T13:18:00.976Z,0.40
2023-02-25T13:20:43.718Z,0.60
2023-02-25T13:23:32.011Z,1.50
2023-02-25T13:26:53.773Z,1.10
2023-02-25T13:30:09.325Z,0.80
2023-02-25T13:32:38.495Z,0.70
2023-02-25T13:35:23.594Z,0.40
2023-02-25T13:38:16.263Z,0.90
2023-02-25T13:40:58.284Z,0.70
2023-02-25T13:43:51.176Z,0.47
2023-02-25T13:46:27.366Z,1.52
2023-02-25T13:49:24.972Z,0.40
2023-02-25T13:52:09.913Z,0.70
2023-02-25T13:55:13.661Z,0.28
2023-02-25T13:57:47.330Z,0.40
2023-02-25T14:00:55.968Z,0.80
2023-02-25T14:04:08.987Z,0.60
2023-02-25T14:06:54.149Z,0.70
2023-02-25T14:10:17.556Z,0.50
2023-02-25T14:13:11.145Z,0.40
2023-02-25T14:15:47.555Z,0.40
2023-02-25T14:18:32.002Z,0.60
2023-02-25T14:21:38.813Z,0.75
2023-02-25T14:24:11.617Z,0.68
2023-02-25T14:26:57.620Z,0.75
2023-02-25T14:29:41.626Z,1.02
2023-02-25T14:32:26.614Z,0.98
2023-02-25T14:34:59.222Z,0.90
2023-02-25T14:37:55.702Z,0.70
2023-02-25T14:40:41.317Z,0.60
2023-02-25T14:43:28.698Z,0.60
2023-02-25T14:45:54.978Z,0.50
2023-02-25T14:48:44.330Z,0.50
2023-02-25T14:51:48.055Z,0.55
2023-02-25T14:54:43.476Z,0.43
2023-02-25T14:57:20.391Z,0.60
2023-02-25T15:00:22.811Z,0.50
2023-02-25T15:03:19.377Z,0.63
2023-02-25T15:06:17.435Z,0.88
2023-02-25T15:09:10.228Z,0.68
2023-02-25T15:11:49.932Z,0.82
2023-02-25T15:14:40.950Z,0.82
2023-02-25T15:17:39.749Z,1.00
2023-02-25T15:20:33.628Z,0.65
2023-02-25T15:23:14.281Z,0.40
2023-02-25T15:26:03.999Z,1.05
2023-02-25T15:28:30.296Z,0.65
2023-02-25T15:31:00.294Z,1.00
2023-02-25T15:33:35.932Z,0.67
2023-02-25T15:36:21.525Z,0.70
2023-02-25T15:38:50.792Z,0.45
2023-02-25T15:41:26.424Z,0.60
2023-02-25T15:44:08.052Z,0.45
2023-02-25T15:46:34.499Z,0.60
2023-02-25T15:49:31.689Z,0.73
2023-02-25T15:52:03.290Z,0.80
2023-02-25T15:54:30.677Z,1.10
2023-02-25T15:57:24.566Z,0.50
2023-02-25T15:59:57.411Z,0.30
2023-02-25T16:02:29.968Z,0.70
2023-02-25T16:05:15.366Z,0.50
2023-02-25T16:07:44.166Z,0.88
2023-02-25T16:10:34.916Z,0.70
2023-02-25T16:13:02.429Z,0.80
2023-02-25T16:15:52.302Z,1.10
2023-02-25T16:18:45.073Z,0.82
2023-02-25T16:21:19.465Z,1.05
2023-02-25T16:23:45.905Z,0.57
2023-02-25T16:26:41.564Z,0.60
2023-02-25T16:29:12.372Z,0.75
2023-02-25T16:34:54.960Z,1.00
2023-02-25T16:40:38.073Z,0.80
2023-02-25T16:43:05.310Z,0.60
2023-02-25T16:46:03.543Z,0.95
2023-02-25T16:48:38.035Z,0.90
2023-02-25T16:51:17.769Z,0.77
2023-02-25T16:53:45.950Z,0.80
2023-02-25T16:56:21.676Z,0.57
2023-02-25T16:59:06.559Z,0.95
2023-02-25T17:01:36.287Z,0.85
2023-02-25T17:04:15.221Z,0.90
2023-02-25T17:06:42.683Z,0.93
2023-02-25T17:09:22.753Z,0.90
2023-02-25T17:11:55.635Z,0.80
2023-02-25T17:14:23.445Z,0.82
2023-02-25T17:16:49.836Z,1.10
2023-02-25T17:19:20.422Z,1.30
2023-02-25T17:21:53.872Z,1.17
2023-02-25T17:24:27.143Z,0.73
2023-02-25T17:26:53.888Z,0.95
2023-02-25T17:29:21.025Z,1.00
2023-02-25T17:31:53.660Z,0.80
2023-02-25T17:34:29.060Z,1.15
2023-02-25T17:36:57.975Z,0.80
2023-02-25T17:39:24.800Z,0.82
2023-02-25T17:41:51.285Z,0.90
2023-02-25T17:44:36.100Z,1.30
2023-02-25T17:47:04.145Z,1.20
2023-02-25T17:49:35.460Z,0.75
2023-02-25T17:52:14.890Z,0.98
2023-02-25T17:54:58.281Z,1.10
2023-02-25T17:57:26.414Z,0.80
2023-02-25T18:00:08.920Z,0.70
2023-02-25T18:02:38.572Z,0.90
2023-02-25T18:05:14.069Z,0.82
2023-02-25T18:07:47.338Z,0.70
2023-02-25T18:10:25.625Z,1.00
2023-02-25T18:12:54.661Z,1.40
2023-02-25T18:15:23.974Z,1.35
2023-02-25T18:17:53.019Z,1.48
2023-02-25T18:20:27.249Z,1.30
2023-02-25T18:22:55.159Z,1.25
2023-02-25T18:25:36.177Z,1.27
2023-02-25T18:28:04.578Z,1.02
2023-02-25T18:30:32.683Z,1.23
2023-02-25T18:32:59.925Z,1.05
2023-02-25T18:35:28.196Z,1.25
2023-02-25T18:37:55.887Z,1.58
2023-02-25T18:40:29.640Z,1.42
2023-02-25T18:42:56.747Z,1.63
2023-02-25T18:45:24.552Z,1.40
2023-02-25T18:47:52.233Z,1.50
2023-02-25T18:50:19.827Z,1.05
2023-02-25T18:52:46.870Z,1.33
2023-02-25T18:55:19.134Z,1.67
2023-02-25T18:57:45.584Z,2.90
2023-02-25T19:00:14.245Z,3.42
2023-02-25T19:02:48.749Z,3.60
2023-02-25T19:05:16.359Z,2.63
2023-02-25T19:07:43.403Z,2.45
2023-02-25T19:10:15.053Z,4.38
2023-02-25T19:12:41.846Z,3.58
2023-02-25T19:15:14.863Z,4.57
2023-02-25T19:17:41.225Z,5.53
2023-02-25T19:20:08.817Z,4.88
2023-02-25T19:22:41.324Z,2.40
2023-02-25T19:25:17.159Z,2.88
2023-02-25T19:27:43.483Z,2.63
2023-02-25T19:30:13.667Z,2.42
2023-02-25T19:32:40.743Z,2.00
2023-02-25T19:35:08.423Z,2.55
2023-02-25T19:37:39.861Z,2.30
2023-02-25T19:40:12.241Z,2.33
2023-02-25T19:42:40.178Z,3.45
2023-02-25T19:45:09.255Z,4.10
2023-02-25T19:47:36.701Z,5.20
2023-02-25T19:50:04.321Z,5.07
2023-02-25T19:52:30.982Z,3.30
2023-02-25T19:54:57.353Z,2.90
2023-02-25T19:57:23.648Z,4.15
2023-02-25T19:59:50.278Z,3.92
2023-02-25T20:02:16.593Z,4.32
2023-02-25T20:04:42.912Z,4.13
2023-02-25T20:07:10.133Z,4.78
2023-02-25T20:09:36.589Z,4.50
2023-02-25T20:12:03.239Z,4.53
2023-02-25T20:14:29.641Z,4.05
2023-02-25T20:16:57.028Z,4.55
2023-02-25T20:19:24.847Z,4.10
2023-02-25T20:21:52.928Z,4.47
2023-02-25T20:24:19.522Z,4.85
2023-02-25T20:26:45.849Z,4.90
2023-02-25T20:29:12.263Z,4.70
2023-02-25T20:31:38.610Z,5.00
2023-02-25T20:34:05.915Z,4.07
2023-02-25T20:36:45.327Z,5.05
2023-02-25T20:39:39.139Z,4.28
2023-02-25T20:42:13.801Z,3.83
2023-02-25T20:44:40.719Z,4.18
2023-02-25T20:47:07.434Z,4.20
2023-02-25T20:49:35.761Z,4.00
2023-02-25T20:52:02.331Z,3.72
2023-02-25T20:54:28.627Z,4.22
2023-02-25T20:56:54.953Z,3.72
2023-02-25T20:59:21.381Z,3.80
2023-02-25T21:01:47.688Z,3.30
2023-02-25T21:04:14.060Z,3.28
2023-02-25T21:06:40.905Z,4.07
2023-02-25T21:09:07.898Z,4.00
2023-02-25T21:11:34.506Z,4.13
2023-02-25T21:14:00.893Z,3.40
2023-02-25T21:16:27.506Z,3.58
2023-02-25T21:18:53.984Z,3.55
2023-02-25T21:21:21.515Z,2.97
2023-02-25T21:23:49.208Z,3.33
2023-02-25T21:26:15.997Z,3.00
2023-02-25T21:28:42.419Z,2.47
2023-02-25T21:31:12.261Z,1.90
2023-02-25T21:33:39.879Z,2.10
2023-02-25T21:36:10.232Z,2.08
2023-02-25T21:38:37.831Z,2.17
2023-02-25T21:41:14.911Z,1.83
2023-02-25T21:43:42.539Z,2.35
2023-02-25T21:46:12.964Z,2.28
2023-02-25T21:48:40.732Z,1.77
2023-02-25T21:51:14.467Z,2.55
2023-02-25T21:53:40.815Z,1.95
2023-02-25T21:56:16.136Z,2.75
2023-02-25T21:58:42.813Z,2.20
2023-02-25T22:01:17.536Z,2.40
2023-02-25T22:03:45.047Z,2.90
2023-02-25T22:06:11.620Z,2.83
2023-02-25T22:08:40.097Z,1.98
2023-02-25T22:11:19.151Z,2.10
2023-02-25T22:13:46.195Z,1.70
2023-02-25T22:16:14.582Z,1.65
2023-02-25T22:18:41.667Z,2.30
2023-02-25T22:21:13.712Z,1.90
2023-02-25T22:23:43.179Z,2.42
2023-02-25T22:26:12.359Z,2.13
2023-02-25T22:28:38.934Z,2.75
2023-02-25T22:31:08.658Z,1.98
2023-02-25T22:33:35.050Z,2.17
2023-02-25T22:36:03.343Z,3.05
2023-02-25T22:38:32.588Z,2.47
2023-02-25T22:41:01.091Z,2.10
2023-02-25T22:43:29.606Z,3.10
2023-02-25T22:46:18.330Z,3.90
2023-02-25T22:48:46.760Z,4.03
2023-02-25T22:51:13.920Z,5.25
2023-02-25T22:53:40.948Z,6.10
2023-02-25T22:56:10.069Z,5.03
2023-02-25T22:58:38.860Z,4.20
2023-02-25T23:01:05.918Z,3.38
2023-02-25T23:03:32.302Z,3.13
2023-02-25T23:05:58.614Z,3.15
2023-02-25T23:08:25.002Z,3.38
2023-02-25T23:10:51.458Z,4.15
2023-02-25T23:13:17.851Z,3.92
2023-02-25T23:15:47.261Z,4.15
2023-02-25T23:18:15.325Z,4.75
2023-02-25T23:20:41.923Z,4.50
2023-02-25T23:23:09.429Z,4.13
2023-02-25T23:25:39.490Z,4.20
2023-02-25T23:28:08.063Z,4.35
2023-02-25T23:30:38.129Z,5.25
2023-02-25T23:33:04.956Z,4.82
2023-02-25T23:35:32.675Z,3.97
2023-02-25T23:37:59.061Z,4.75
2023-02-25T23:40:25.419Z,3.63
2023-02-25T23:42:51.785Z,3.45
2023-02-25T23:45:18.203Z,4.35
2023-02-25T23:47:44.617Z,4.07
2023-02-25T23:50:15.383Z,3.97
2023-02-25T23:52:43.550Z,3.25
2023-02-25T23:55:11.713Z,3.05
2023-02-25T23:57:38.903Z,2.55
